Time;durP1;ratioP1;P1;durP2;ratioP2;P2;SDS_P1;SDS_P2;PMS_P1;PMS_P2;Temp;Humidity;BMP_temperature;BMP_pressure;BME280_temperature;BME280_humidity;BME280_pressure;Samples;Min_cycle;Max_cycle;Signal;HPM_P1;HPM_P2
2023/11/04 00:01:15;;;;;;;8.88;6.18;;;;;;;;;;4950984;28;20176;-83
2023/11/04 00:03:44;;;;;;;9.25;4.82;;;;;;;;;;4953368;28;20702;-83
2023/11/04 00:06:14;;;;;;;7.72;4.50;;;;;;;;;;4957584;29;20671;-82
2023/11/04 00:08:42;;;;;;;8.40;5.15;;;;;;;;;;4939900;29;20211;-83
2023/11/04 00:11:10;;;;;;;4.90;4.40;;;;;;;;;;4936230;29;20220;-84
2023/11/04 00:13:38;;;;;;;4.88;4.15;;;;;;;;;;4940202;29;20203;-83
2023/11/04 00:16:08;;;;;;;5.28;4.30;;;;;;;;;;4948948;29;20210;-83
2023/11/04 00:18:36;;;;;;;9.38;5.15;;;;;;;;;;4958023;29;20210;-83
2023/11/04 00:21:07;;;;;;;7.15;4.70;;;;;;;;;;4957666;29;20550;-83
2023/11/04 00:23:36;;;;;;;6.03;4.22;;;;;;;;;;4944648;29;20680;-84
2023/11/04 00:26:05;;;;;;;4.95;4.40;;;;;;;;;;4954010;29;20667;-83
2023/11/04 00:28:33;;;;;;;8.10;4.22;;;;;;;;;;4957360;28;20258;-82
2023/11/04 00:31:01;;;;;;;9.00;4.90;;;;;;;;;;4956557;29;20218;-84
2023/11/04 00:33:49;;;;;;;8.25;4.63;;;;;;;;;;4949091;29;20243;-82
2023/11/04 00:36:37;;;;;;;6.88;4.20;;;;;;;;;;4941177;29;20193;-82
2023/11/04 00:39:27;;;;;;;6.00;4.65;;;;;;;;;;4925159;29;20209;-82
2023/11/04 00:42:15;;;;;;;6.20;4.30;;;;;;;;;;4936300;29;20215;-83
2023/11/04 00:45:03;;;;;;;7.13;4.38;;;;;;;;;;4945731;29;20196;-83
2023/11/04 00:47:51;;;;;;;9.23;3.70;;;;;;;;;;4953633;29;20196;-82
2023/11/04 00:50:39;;;;;;;7.90;3.50;;;;;;;;;;4917311;29;20638;-83
2023/11/04 00:53:27;;;;;;;4.07;2.88;;;;;;;;;;4937774;29;20197;-83
2023/11/04 00:56:17;;;;;;;4.10;3.70;;;;;;;;;;4938030;29;20193;-83
2023/11/04 00:59:06;;;;;;;5.45;3.92;;;;;;;;;;4945679;29;20196;-84
2023/11/04 01:01:54;;;;;;;3.97;3.67;;;;;;;;;;4955117;29;20197;-84
2023/11/04 01:04:42;;;;;;;21.27;3.60;;;;;;;;;;4944269;29;20220;-83
2023/11/04 01:07:30;;;;;;;3.47;3.15;;;;;;;;;;4945747;29;20259;-83
2023/11/04 01:10:19;;;;;;;7.07;3.40;;;;;;;;;;4955423;29;20207;-83
2023/11/04 01:13:08;;;;;;;3.70;3.38;;;;;;;;;;4956058;29;20199;-83
2023/11/04 01:15:57;;;;;;;3.97;3.65;;;;;;;;;;4955494;29;20218;-83
2023/11/04 01:18:46;;;;;;;4.32;4.00;;;;;;;;;;4939122;29;20234;-83
2023/11/04 01:21:34;;;;;;;5.28;4.05;;;;;;;;;;4928190;29;20270;-83
2023/11/04 01:24:22;;;;;;;4.15;3.45;;;;;;;;;;4940117;29;20695;-83
2023/11/04 01:27:10;;;;;;;4.28;3.72;;;;;;;;;;4923442;29;20181;-83
2023/11/04 01:30:00;;;;;;;9.45;3.25;;;;;;;;;;4934603;29;20239;-83
2023/11/04 01:32:49;;;;;;;3.85;3.38;;;;;;;;;;4948445;29;20188;-82
2023/11/04 01:35:37;;;;;;;6.97;3.90;;;;;;;;;;4944713;29;20255;-85
2023/11/04 01:38:25;;;;;;;3.38;3.08;;;;;;;;;;4924519;29;20197;-83
2023/11/04 01:41:14;;;;;;;9.07;3.33;;;;;;;;;;4937068;29;20196;-84
2023/11/04 01:44:02;;;;;;;8.68;3.45;;;;;;;;;;4924757;29;20235;-83
2023/11/04 01:46:51;;;;;;;5.15;3.40;;;;;;;;;;4936065;29;20255;-82
2023/11/04 01:49:40;;;;;;;5.25;2.97;;;;;;;;;;4929050;29;20275;-84
2023/11/04 01:52:28;;;;;;;5.80;3.65;;;;;;;;;;4942084;29;20629;-83
2023/11/04 01:55:16;;;;;;;4.20;3.17;;;;;;;;;;4953924;29;20211;-84
2023/11/04 01:58:04;;;;;;;5.18;3.42;;;;;;;;;;4956025;29;20195;-83
2023/11/04 02:00:52;;;;;;;3.95;3.30;;;;;;;;;;4940869;29;20215;-87
2023/11/04 02:03:42;;;;;;;4.78;3.00;;;;;;;;;;4925716;28;20630;-87
2023/11/04 02:06:30;;;;;;;5.43;3.15;;;;;;;;;;4918428;29;20276;-86
2023/11/04 02:09:20;;;;;;;2.97;2.65;;;;;;;;;;4953712;29;20206;-86
2023/11/04 02:12:08;;;;;;;4.20;3.55;;;;;;;;;;4952821;29;20192;-86
2023/11/04 02:14:56;;;;;;;3.75;3.35;;;;;;;;;;4944506;29;20207;-87
2023/11/04 02:17:45;;;;;;;5.30;3.25;;;;;;;;;;4904297;29;20588;-87
2023/11/04 02:20:35;;;;;;;3.50;2.78;;;;;;;;;;4908366;29;20245;-87
2023/11/04 02:23:24;;;;;;;3.25;2.97;;;;;;;;;;4937777;29;20220;-87
2023/11/04 02:26:13;;;;;;;3.35;2.90;;;;;;;;;;4931134;29;20275;-87
2023/11/04 02:29:01;;;;;;;3.15;2.85;;;;;;;;;;4920083;29;20627;-87
2023/11/04 02:31:49;;;;;;;4.90;3.22;;;;;;;;;;4915770;29;20200;-87
2023/11/04 02:34:37;;;;;;;3.58;3.25;;;;;;;;;;4937774;29;20611;-85
2023/11/04 02:37:25;;;;;;;4.82;3.25;;;;;;;;;;4946851;29;20199;-87
2023/11/04 02:40:15;;;;;;;3.10;2.67;;;;;;;;;;4943393;29;20200;-86
2023/11/04 02:43:03;;;;;;;2.70;2.50;;;;;;;;;;4951667;29;20215;-86
2023/11/04 02:45:51;;;;;;;8.63;2.53;;;;;;;;;;4929150;29;20219;-87
2023/11/04 02:48:39;;;;;;;5.43;2.30;;;;;;;;;;4932420;29;20192;-86
2023/11/04 02:51:28;;;;;;;1.88;1.77;;;;;;;;;;4939110;29;20215;-86
2023/11/04 02:54:16;;;;;;;2.50;2.30;;;;;;;;;;4940702;29;20204;-86
2023/11/04 02:57:06;;;;;;;2.92;2.50;;;;;;;;;;4927055;29;20562;-86
2023/11/04 02:59:55;;;;;;;2.00;1.90;;;;;;;;;;4925723;29;20243;-87
2023/11/04 03:02:44;;;;;;;2.40;2.20;;;;;;;;;;4937530;29;20260;-86
2023/11/04 03:05:32;;;;;;;3.30;2.05;;;;;;;;;;4937887;29;20225;-86
2023/11/04 03:08:21;;;;;;;1.85;1.75;;;;;;;;;;4926281;29;20295;-86
2023/11/04 03:11:09;;;;;;;1.90;1.80;;;;;;;;;;4926064;29;20601;-86
2023/11/04 03:13:59;;;;;;;2.20;1.70;;;;;;;;;;4938566;29;20192;-86
2023/11/04 03:16:47;;;;;;;4.82;1.58;;;;;;;;;;4938268;29;20193;-86
2023/11/04 03:19:36;;;;;;;3.75;1.65;;;;;;;;;;4938326;29;20229;-87
2023/11/04 03:22:25;;;;;;;2.80;1.35;;;;;;;;;;4939199;29;20263;-86
2023/11/04 03:25:15;;;;;;;1.40;1.30;;;;;;;;;;4925333;29;20276;-86
2023/11/04 03:28:03;;;;;;;2.33;1.80;;;;;;;;;;4938635;29;20548;-86
2023/11/04 03:30:52;;;;;;;3.10;1.45;;;;;;;;;;4938317;29;20224;-86
2023/11/04 03:33:40;;;;;;;2.42;1.40;;;;;;;;;;4924755;29;20196;-86
2023/11/04 03:36:28;;;;;;;2.05;1.50;;;;;;;;;;4924476;29;20197;-87
2023/11/04 03:39:17;;;;;;;1.70;1.55;;;;;;;;;;4937922;29;20211;-86
2023/11/04 03:42:05;;;;;;;1.65;1.25;;;;;;;;;;4924747;29;20587;-86
2023/11/04 03:44:53;;;;;;;2.38;1.30;;;;;;;;;;4915750;29;20272;-86
2023/11/04 03:47:43;;;;;;;2.75;1.30;;;;;;;;;;4918599;29;20204;-86
2023/11/04 03:50:31;;;;;;;2.08;1.40;;;;;;;;;;4934864;29;20199;-85
2023/11/04 03:53:19;;;;;;;3.30;1.30;;;;;;;;;;4941741;29;20270;-86
2023/11/04 03:56:09;;;;;;;1.50;1.40;;;;;;;;;;4925647;29;20173;-86
2023/11/04 03:58:57;;;;;;;1.38;1.27;;;;;;;;;;4950277;29;20196;-86
2023/11/04 04:01:46;;;;;;;2.70;1.23;;;;;;;;;;4942854;29;20192;-85
2023/11/04 04:04:36;;;;;;;1.63;1.52;;;;;;;;;;4955449;28;20223;-87
2023/11/04 04:07:24;;;;;;;1.30;1.20;;;;;;;;;;4939870;29;20320;-86
2023/11/04 04:10:12;;;;;;;1.50;1.40;;;;;;;;;;4937592;29;20247;-87
2023/11/04 04:13:00;;;;;;;1.98;1.52;;;;;;;;;;4938200;29;20195;-84
2023/11/04 04:15:48;;;;;;;1.42;1.33;;;;;;;;;;4918015;29;20193;-86
2023/11/04 04:18:36;;;;;;;2.35;1.45;;;;;;;;;;4918923;29;20236;-85
2023/11/04 04:21:26;;;;;;;1.60;1.50;;;;;;;;;;4919050;29;20200;-86
2023/11/04 04:24:14;;;;;;;2.45;1.90;;;;;;;;;;4917501;29;20266;-86
2023/11/04 04:27:04;;;;;;;3.35;1.67;;;;;;;;;;4946732;29;20203;-87
2023/11/04 04:29:52;;;;;;;2.03;1.80;;;;;;;;;;4942094;29;20198;-86
2023/11/04 04:32:41;;;;;;;1.63;1.52;;;;;;;;;;4955980;29;20195;-86
2023/11/04 04:35:29;;;;;;;2.50;1.67;;;;;;;;;;4956675;29;20195;-86
2023/11/04 04:38:19;;;;;;;1.63;1.33;;;;;;;;;;4931227;29;20252;-85
2023/11/04 04:41:08;;;;;;;1.17;1.10;;;;;;;;;;4969061;28;20192;-86
2023/11/04 04:43:58;;;;;;;10.18;7.75;;;;;;;;;;4947713;29;20268;-86
2023/11/04 04:46:46;;;;;;;8.95;6.90;;;;;;;;;;4930112;29;20774;-87
2023/11/04 04:49:34;;;;;;;1.50;1.40;;;;;;;;;;4933063;29;20207;-86
2023/11/04 04:52:22;;;;;;;1.40;1.30;;;;;;;;;;4937968;29;20215;-85
2023/11/04 04:55:14;;;;;;;1.20;1.10;;;;;;;;;;4938502;29;20269;-86
2023/11/04 04:58:02;;;;;;;5.60;1.45;;;;;;;;;;4940367;29;20251;-86
2023/11/04 05:00:50;;;;;;;2.35;1.45;;;;;;;;;;4928368;29;20253;-85
2023/11/04 05:03:38;;;;;;;1.20;1.10;;;;;;;;;;4954892;28;20244;-84
2023/11/04 05:06:26;;;;;;;1.20;1.10;;;;;;;;;;4954261;29;20351;-86
2023/11/04 05:09:14;;;;;;;1.52;1.02;;;;;;;;;;4932587;29;20329;-85
2023/11/04 05:12:04;;;;;;;1.48;1.38;;;;;;;;;;4938724;29;20786;-86
2023/11/04 05:14:52;;;;;;;1.00;0.90;;;;;;;;;;4939083;29;20244;-86
2023/11/04 05:17:40;;;;;;;1.05;0.95;;;;;;;;;;4926522;29;20276;-86
2023/11/04 05:20:29;;;;;;;3.80;3.50;;;;;;;;;;4938994;29;20307;-86
2023/11/04 05:23:18;;;;;;;1.70;1.20;;;;;;;;;;4918042;29;20198;-87
2023/11/04 05:26:06;;;;;;;1.92;1.00;;;;;;;;;;4913154;29;20264;-83
2023/11/04 05:28:56;;;;;;;3.88;1.23;;;;;;;;;;4928309;29;20204;-86
2023/11/04 05:31:46;;;;;;;1.50;1.40;;;;;;;;;;4934915;29;20189;-86
2023/11/04 05:34:34;;;;;;;3.80;3.58;;;;;;;;;;4936708;29;20192;-85
2023/11/04 05:37:22;;;;;;;4.18;3.78;;;;;;;;;;4935250;29;20200;-86
2023/11/04 05:40:11;;;;;;;0.90;0.80;;;;;;;;;;4935732;29;20218;-85
2023/11/04 05:42:59;;;;;;;1.17;1.08;;;;;;;;;;4923455;29;20201;-85
2023/11/04 05:45:49;;;;;;;3.15;2.65;;;;;;;;;;4935840;29;20205;-86
2023/11/04 05:48:38;;;;;;;6.43;4.32;;;;;;;;;;4922543;29;20273;-84
2023/11/04 05:51:26;;;;;;;6.10;5.68;;;;;;;;;;4939246;29;20272;-86
2023/11/04 05:54:14;;;;;;;3.70;3.45;;;;;;;;;;4936507;29;20204;-83
2023/11/04 05:57:03;;;;;;;1.40;1.30;;;;;;;;;;4941126;29;20651;-85
2023/11/04 05:59:51;;;;;;;1.73;0.90;;;;;;;;;;4939196;29;20240;-85
2023/11/04 06:02:40;;;;;;;3.65;3.45;;;;;;;;;;4935784;29;20244;-87
2023/11/04 06:05:28;;;;;;;0.80;0.80;;;;;;;;;;4946352;29;20305;-85
2023/11/04 06:08:17;;;;;;;0.70;0.70;;;;;;;;;;4951550;29;20279;-85
2023/11/04 06:11:05;;;;;;;1.42;1.25;;;;;;;;;;4957782;28;20290;-85
2023/11/04 06:13:54;;;;;;;1.25;0.90;;;;;;;;;;4949652;29;20284;-85
2023/11/04 06:16:43;;;;;;;1.50;1.40;;;;;;;;;;4947459;29;20274;-85
2023/11/04 06:19:32;;;;;;;2.17;2.05;;;;;;;;;;4948662;29;20297;-84
2023/11/04 06:22:21;;;;;;;6.22;4.40;;;;;;;;;;4916914;29;20648;-84
2023/11/04 06:25:09;;;;;;;1.20;1.20;;;;;;;;;;4935417;29;20292;-85
2023/11/04 06:27:57;;;;;;;3.03;2.05;;;;;;;;;;4953874;29;20355;-83
2023/11/04 06:30:45;;;;;;;1.60;0.95;;;;;;;;;;4946282;29;20204;-87
2023/11/04 06:33:34;;;;;;;1.05;0.95;;;;;;;;;;4955107;29;20255;-86
2023/11/04 06:36:25;;;;;;;2.45;1.00;;;;;;;;;;4965564;29;20200;-87
2023/11/04 06:39:14;;;;;;;3.08;1.55;;;;;;;;;;4927235;29;20556;-87
2023/11/04 06:42:02;;;;;;;0.88;0.73;;;;;;;;;;4914905;29;20293;-86
2023/11/04 06:44:50;;;;;;;1.30;1.20;;;;;;;;;;4950674;29;20224;-86
2023/11/04 06:47:40;;;;;;;1.88;0.90;;;;;;;;;;4946365;29;20188;-87
2023/11/04 06:50:28;;;;;;;1.88;0.95;;;;;;;;;;4943267;29;20672;-86
2023/11/04 06:52:58;;;;;;;1.13;1.13;;;;;;;;;;4933164;29;20263;-84
2023/11/04 06:55:26;;;;;;;1.10;1.05;;;;;;;;;;4950366;29;20268;-85
2023/11/04 06:57:55;;;;;;;1.40;1.00;;;;;;;;;;4949794;29;20319;-86
2023/11/04 07:00:23;;;;;;;2.38;0.95;;;;;;;;;;4948113;29;20262;-86
2023/11/04 07:02:51;;;;;;;0.90;0.90;;;;;;;;;;4948141;29;20211;-85
2023/11/04 07:05:20;;;;;;;1.58;0.80;;;;;;;;;;4947482;28;20223;-85
2023/11/04 07:07:49;;;;;;;0.90;0.90;;;;;;;;;;4947447;29;20207;-85
2023/11/04 07:10:19;;;;;;;1.63;1.10;;;;;;;;;;4955584;29;20281;-86
2023/11/04 07:12:47;;;;;;;5.13;0.90;;;;;;;;;;4948241;29;20197;-84
2023/11/04 07:15:15;;;;;;;1.10;0.90;;;;;;;;;;4950374;29;20320;-87
2023/11/04 07:17:44;;;;;;;0.80;0.80;;;;;;;;;;4954689;28;20303;-85
2023/11/04 07:20:12;;;;;;;1.10;0.80;;;;;;;;;;4953223;29;20236;-84
2023/11/04 07:22:43;;;;;;;1.65;1.23;;;;;;;;;;4969436;29;20667;-85
2023/11/04 07:25:12;;;;;;;2.25;2.15;;;;;;;;;;4967300;29;20341;-84
2023/11/04 07:27:42;;;;;;;2.45;0.98;;;;;;;;;;4955542;28;20235;-84
2023/11/04 07:30:10;;;;;;;0.77;0.77;;;;;;;;;;4973384;28;20227;-82
2023/11/04 07:32:39;;;;;;;1.58;1.58;;;;;;;;;;4976008;28;20228;-83
2023/11/04 07:35:10;;;;;;;1.23;1.10;;;;;;;;;;4974555;28;20212;-83
2023/11/04 07:37:39;;;;;;;2.70;2.60;;;;;;;;;;4962168;28;20251;-85
2023/11/04 07:40:08;;;;;;;1.00;0.90;;;;;;;;;;4963062;28;20283;-80
2023/11/04 07:42:36;;;;;;;1.45;1.30;;;;;;;;;;4956383;29;20248;-81
2023/11/04 07:45:06;;;;;;;1.77;1.67;;;;;;;;;;4934199;29;20274;-83
2023/11/04 07:47:35;;;;;;;1.75;1.10;;;;;;;;;;4928544;29;20256;-83
2023/11/04 07:50:06;;;;;;;9.80;9.20;;;;;;;;;;4929853;29;20264;-82
2023/11/04 07:52:34;;;;;;;3.22;3.13;;;;;;;;;;4929568;29;20292;-84
2023/11/04 07:55:06;;;;;;;4.20;3.80;;;;;;;;;;4911381;29;20292;-82
2023/11/04 07:57:34;;;;;;;1.38;1.00;;;;;;;;;;4927700;29;20254;-82
2023/11/04 08:00:05;;;;;;;1.05;0.70;;;;;;;;;;4929189;29;20280;-83
2023/11/04 08:02:36;;;;;;;1.75;1.50;;;;;;;;;;4954153;28;20244;-81
2023/11/04 08:05:05;;;;;;;2.97;1.25;;;;;;;;;;4959308;29;20247;-82
2023/11/04 08:07:33;;;;;;;1.30;0.85;;;;;;;;;;4964135;29;20263;-88
2023/11/04 08:10:03;;;;;;;2.05;1.95;;;;;;;;;;4943000;29;20284;-85
2023/11/04 08:12:32;;;;;;;1.92;1.30;;;;;;;;;;4944175;29;20289;-87
2023/11/04 08:15:00;;;;;;;2.42;2.33;;;;;;;;;;4963100;29;20263;-80
2023/11/04 08:17:29;;;;;;;1.10;1.00;;;;;;;;;;4933413;29;20331;-86
2023/11/04 08:19:58;;;;;;;1.48;1.38;;;;;;;;;;4955333;29;20259;-85
2023/11/04 08:22:27;;;;;;;1.33;0.90;;;;;;;;;;4959682;28;20285;-88
2023/11/04 08:24:58;;;;;;;1.27;0.80;;;;;;;;;;4921847;29;20280;-86
2023/11/04 08:27:29;;;;;;;1.10;1.00;;;;;;;;;;4956228;28;20232;-87
2023/11/04 08:29:58;;;;;;;2.00;0.95;;;;;;;;;;4942253;28;20307;-86
2023/11/04 08:32:27;;;;;;;1.55;0.90;;;;;;;;;;4954158;29;20235;-89
2023/11/04 08:34:58;;;;;;;2.42;0.88;;;;;;;;;;4937815;28;20284;-87
2023/11/04 08:37:28;;;;;;;1.10;1.00;;;;;;;;;;4940305;28;20280;-86
2023/11/04 08:39:56;;;;;;;2.08;1.10;;;;;;;;;;4948081;28;20254;-86
2023/11/04 08:42:25;;;;;;;1.15;1.02;;;;;;;;;;4964839;28;20196;-87
2023/11/04 08:44:53;;;;;;;0.90;0.80;;;;;;;;;;4945743;28;20237;-87
2023/11/04 08:47:22;;;;;;;2.55;1.08;;;;;;;;;;4936042;29;20261;-84
2023/11/04 08:49:53;;;;;;;1.88;1.00;;;;;;;;;;4968911;29;20196;-86
2023/11/04 08:52:21;;;;;;;0.77;0.77;;;;;;;;;;4964358;28;20236;-85
2023/11/04 08:54:51;;;;;;;1.25;1.10;;;;;;;;;;4932310;29;20261;-86
2023/11/04 08:57:20;;;;;;;1.15;1.05;;;;;;;;;;4937511;29;20299;-84
2023/11/04 08:59:48;;;;;;;1.77;1.00;;;;;;;;;;4938719;29;20228;-86
2023/11/04 09:02:16;;;;;;;1.70;1.60;;;;;;;;;;4950551;29;20292;-81
2023/11/04 09:04:45;;;;;;;1.60;1.10;;;;;;;;;;4957043;29;20244;-81
2023/11/04 09:07:13;;;;;;;1.02;0.90;;;;;;;;;;4955558;29;20275;-86
2023/11/04 09:09:41;;;;;;;2.45;1.20;;;;;;;;;;4954510;28;20224;-83
2023/11/04 09:12:11;;;;;;;1.00;1.00;;;;;;;;;;4952836;28;20212;-85
2023/11/04 09:14:40;;;;;;;1.40;1.30;;;;;;;;;;4955427;28;20204;-85
2023/11/04 09:17:08;;;;;;;1.40;1.30;;;;;;;;;;4962005;28;20231;-84
2023/11/04 09:19:36;;;;;;;1.20;1.20;;;;;;;;;;4957251;29;20282;-83
2023/11/04 09:22:05;;;;;;;3.40;1.40;;;;;;;;;;4962303;29;20678;-83
2023/11/04 09:24:33;;;;;;;3.90;2.00;;;;;;;;;;4944504;29;20271;-86
2023/11/04 09:27:02;;;;;;;1.60;1.50;;;;;;;;;;4963307;23;20609;-70
2023/11/04 09:29:32;;;;;;;1.77;1.70;;;;;;;;;;4948502;28;20348;-71
2023/11/04 09:32:00;;;;;;;2.17;1.98;;;;;;;;;;4952873;28;20204;-70
2023/11/04 09:34:28;;;;;;;2.20;2.10;;;;;;;;;;4951281;28;20674;-70
2023/11/04 09:36:56;;;;;;;2.30;2.10;;;;;;;;;;4945600;29;20574;-70
2023/11/04 09:39:24;;;;;;;2.38;2.17;;;;;;;;;;4933795;29;20212;-70
2023/11/04 09:41:53;;;;;;;2.30;2.20;;;;;;;;;;4947274;29;20207;-66
2023/11/04 09:44:21;;;;;;;2.20;2.20;;;;;;;;;;4944587;28;20279;-64
2023/11/04 09:46:51;;;;;;;2.75;2.60;;;;;;;;;;4938440;29;20672;-64
2023/11/04 09:49:19;;;;;;;2.63;2.42;;;;;;;;;;4932403;29;20211;-64
2023/11/04 09:51:48;;;;;;;2.50;2.38;;;;;;;;;;4947707;29;20203;-64
2023/11/04 09:54:16;;;;;;;2.70;2.60;;;;;;;;;;4936592;29;20231;-65
2023/11/04 09:56:45;;;;;;;2.58;2.47;;;;;;;;;;4936642;29;20692;-64
2023/11/04 09:59:13;;;;;;;3.03;2.90;;;;;;;;;;4937646;29;20209;-64
2023/11/04 10:01:42;;;;;;;6.10;2.40;;;;;;;;;;4935598;29;20291;-64
2023/11/04 10:04:12;;;;;;;4.25;3.85;;;;;;;;;;4922703;29;20693;-64
2023/11/04 10:06:40;;;;;;;2.95;2.85;;;;;;;;;;4937753;29;20227;-64
2023/11/04 10:09:09;;;;;;;2.70;2.50;;;;;;;;;;4936948;29;20295;-64
2023/11/04 10:11:37;;;;;;;4.03;3.72;;;;;;;;;;4936180;29;20638;-64
2023/11/04 10:14:05;;;;;;;4.23;3.83;;;;;;;;;;4937494;29;20624;-64
2023/11/04 10:16:34;;;;;;;3.20;3.10;;;;;;;;;;4934540;29;20629;-65
2023/11/04 10:19:02;;;;;;;4.07;3.87;;;;;;;;;;4938756;29;20707;-64
2023/11/04 10:21:32;;;;;;;3.20;3.03;;;;;;;;;;4938448;29;20696;-64
2023/11/04 10:24:00;;;;;;;3.07;2.97;;;;;;;;;;4937971;29;20696;-64
2023/11/04 10:26:28;;;;;;;3.50;3.40;;;;;;;;;;4937378;29;20686;-64
2023/11/04 10:28:56;;;;;;;3.80;3.50;;;;;;;;;;4937747;29;20213;-65
2023/11/04 10:31:26;;;;;;;3.90;3.30;;;;;;;;;;4936525;29;20712;-64
2023/11/04 10:33:57;;;;;;;3.47;3.37;;;;;;;;;;4937910;29;20216;-64
2023/11/04 10:36:25;;;;;;;3.33;3.23;;;;;;;;;;4937073;29;20613;-63
2023/11/04 10:38:56;;;;;;;3.40;3.30;;;;;;;;;;4937628;29;21018;-64
2023/11/04 10:41:28;;;;;;;3.80;3.70;;;;;;;;;;4937105;29;20701;-64
2023/11/04 10:43:59;;;;;;;3.47;3.30;;;;;;;;;;4938094;29;20704;-66
2023/11/04 10:46:31;;;;;;;3.35;3.25;;;;;;;;;;4933726;29;20227;-64
2023/11/04 10:49:02;;;;;;;6.00;5.50;;;;;;;;;;4940736;29;20200;-64
2023/11/04 10:51:32;;;;;;;5.97;5.47;;;;;;;;;;4941007;29;20269;-65
2023/11/04 10:54:09;;;;;;;10.90;9.55;;;;;;;;;;4937452;29;20215;-65
2023/11/04 10:56:40;;;;;;;11.15;9.20;;;;;;;;;;4940084;29;20689;-64
2023/11/04 10:59:09;;;;;;;18.67;13.40;;;;;;;;;;4939525;29;20195;-64
2023/11/04 11:01:41;;;;;;;14.70;10.70;;;;;;;;;;4940129;29;20200;-64
2023/11/04 11:04:10;;;;;;;9.38;8.20;;;;;;;;;;4939218;29;20417;-64
2023/11/04 11:06:38;;;;;;;8.45;6.50;;;;;;;;;;4940582;29;20222;-64
2023/11/04 11:09:09;;;;;;;9.53;6.33;;;;;;;;;;4938698;29;20207;-66
2023/11/04 11:11:42;;;;;;;13.00;10.90;;;;;;;;;;4948388;29;21115;-65
2023/11/04 11:14:10;;;;;;;6.43;5.97;;;;;;;;;;4960085;28;20642;-64
2023/11/04 11:16:39;;;;;;;8.20;7.40;;;;;;;;;;4958929;28;20622;-64
2023/11/04 11:19:08;;;;;;;4.57;4.27;;;;;;;;;;4958209;28;21015;-64
2023/11/04 11:21:49;;;;;;;4.17;4.03;;;;;;;;;;4940827;28;20679;-64
2023/11/04 11:24:20;;;;;;;4.83;4.73;;;;;;;;;;4939506;29;20614;-65
2023/11/04 11:26:49;;;;;;;4.80;4.60;;;;;;;;;;4950073;29;20646;-64
2023/11/04 11:29:23;;;;;;;4.70;4.60;;;;;;;;;;4938153;29;21538;-64
2023/11/04 11:31:53;;;;;;;5.03;4.53;;;;;;;;;;4938104;29;20612;-64
2023/11/04 11:34:23;;;;;;;4.67;4.47;;;;;;;;;;4944946;29;20724;-64
2023/11/04 11:36:51;;;;;;;11.77;4.30;;;;;;;;;;4955249;28;20706;-65
2023/11/04 11:39:22;;;;;;;4.20;4.10;;;;;;;;;;4949467;29;20637;-64
2023/11/04 11:41:50;;;;;;;3.83;3.50;;;;;;;;;;4950749;28;20605;-64
2023/11/04 11:44:19;;;;;;;3.27;3.17;;;;;;;;;;4928778;29;20673;-64
2023/11/04 11:46:48;;;;;;;2.87;2.77;;;;;;;;;;4928397;29;20672;-64
2023/11/04 11:49:16;;;;;;;3.30;3.20;;;;;;;;;;4938767;29;21163;-66
2023/11/04 11:51:44;;;;;;;3.20;3.10;;;;;;;;;;4939278;29;20605;-64
2023/11/04 11:54:13;;;;;;;3.40;3.30;;;;;;;;;;4937654;29;20289;-64
2023/11/04 11:56:43;;;;;;;2.40;2.30;;;;;;;;;;4937798;28;20667;-64
2023/11/04 11:59:13;;;;;;;2.10;2.00;;;;;;;;;;4939438;29;20209;-66
2023/11/04 12:01:41;;;;;;;1.50;1.40;;;;;;;;;;4938045;29;20213;-64
2023/11/04 12:04:09;;;;;;;1.95;1.35;;;;;;;;;;4919389;29;20209;-64
2023/11/04 12:06:40;;;;;;;1.20;1.20;;;;;;;;;;4926562;29;20204;-64
2023/11/04 12:09:10;;;;;;;1.50;1.00;;;;;;;;;;4938843;29;20219;-64
2023/11/04 12:11:39;;;;;;;1.90;1.67;;;;;;;;;;4941040;29;20192;-64
2023/11/04 12:14:12;;;;;;;1.00;1.00;;;;;;;;;;4939192;29;20203;-64
2023/11/04 12:16:41;;;;;;;8.68;1.42;;;;;;;;;;4942541;29;20565;-63
2023/11/04 12:19:11;;;;;;;3.38;1.02;;;;;;;;;;4934890;29;20211;-64
2023/11/04 12:21:39;;;;;;;1.35;0.68;;;;;;;;;;4933216;29;20200;-64
2023/11/04 12:24:08;;;;;;;1.60;1.50;;;;;;;;;;4933475;29;20204;-64
2023/11/04 12:26:36;;;;;;;1.42;1.27;;;;;;;;;;4938087;29;20646;-65
2023/11/04 12:29:06;;;;;;;1.30;1.20;;;;;;;;;;4937768;29;20205;-64
2023/11/04 12:31:36;;;;;;;1.50;1.08;;;;;;;;;;4933236;29;20205;-64
2023/11/04 12:34:05;;;;;;;1.20;0.80;;;;;;;;;;4936469;29;20227;-65
2023/11/04 12:36:33;;;;;;;3.75;0.90;;;;;;;;;;4938521;29;20236;-64
2023/11/04 12:39:02;;;;;;;0.80;0.80;;;;;;;;;;4938396;29;20197;-65
2023/11/04 12:41:30;;;;;;;1.00;0.75;;;;;;;;;;4939074;29;20277;-64
2023/11/04 12:44:02;;;;;;;3.25;1.70;;;;;;;;;;4938764;29;20230;-65
2023/11/04 12:46:31;;;;;;;1.10;1.10;;;;;;;;;;4934455;29;20201;-64
2023/11/04 12:49:00;;;;;;;7.45;4.50;;;;;;;;;;4936206;29;20267;-64
2023/11/04 12:51:29;;;;;;;1.85;1.40;;;;;;;;;;4939482;29;20207;-64
2023/11/04 12:53:57;;;;;;;1.65;1.52;;;;;;;;;;4935302;29;20716;-64
2023/11/04 12:56:25;;;;;;;2.13;1.65;;;;;;;;;;4933695;29;20596;-64
2023/11/04 12:58:54;;;;;;;1.55;1.45;;;;;;;;;;4938251;29;20263;-64
2023/11/04 13:01:22;;;;;;;1.40;1.30;;;;;;;;;;4934829;29;20197;-64
2023/11/04 13:03:51;;;;;;;1.42;0.95;;;;;;;;;;4937005;29;20205;-64
2023/11/04 13:06:20;;;;;;;1.92;1.15;;;;;;;;;;4935828;29;20203;-64
2023/11/04 13:08:49;;;;;;;2.40;1.10;;;;;;;;;;4939320;29;20224;-66
2023/11/04 13:11:17;;;;;;;2.97;2.08;;;;;;;;;;4937079;29;20629;-64
2023/11/04 13:13:45;;;;;;;3.10;1.67;;;;;;;;;;4933764;29;20216;-64
2023/11/04 13:16:13;;;;;;;2.10;1.10;;;;;;;;;;4931562;29;20201;-64
2023/11/04 13:18:41;;;;;;;1.50;1.10;;;;;;;;;;4940684;29;20204;-64
2023/11/04 13:21:10;;;;;;;1.67;1.30;;;;;;;;;;4939289;29;20219;-64
2023/11/04 13:23:39;;;;;;;2.13;1.98;;;;;;;;;;4936690;29;20284;-64
2023/11/04 13:26:07;;;;;;;2.30;2.10;;;;;;;;;;4935162;29;20775;-65
2023/11/04 13:28:35;;;;;;;13.30;6.97;;;;;;;;;;4934421;29;20254;-64
2023/11/04 13:31:04;;;;;;;3.25;1.80;;;;;;;;;;4934472;29;20219;-63
2023/11/04 13:33:32;;;;;;;3.67;2.72;;;;;;;;;;4933429;29;20276;-65
2023/11/04 13:36:01;;;;;;;1.50;1.23;;;;;;;;;;4937133;29;20281;-64
2023/11/04 13:38:29;;;;;;;2.20;1.75;;;;;;;;;;4934423;29;20203;-64
2023/11/04 13:40:58;;;;;;;5.18;1.55;;;;;;;;;;4936410;29;20365;-65
2023/11/04 13:43:26;;;;;;;1.77;1.60;;;;;;;;;;4937197;29;20247;-64
2023/11/04 13:45:55;;;;;;;2.45;2.10;;;;;;;;;;4932209;29;20291;-64
2023/11/04 13:48:23;;;;;;;2.35;2.15;;;;;;;;;;4937288;29;20216;-64
2023/11/04 13:50:52;;;;;;;2.90;2.05;;;;;;;;;;4936074;29;20283;-63
2023/11/04 13:53:20;;;;;;;2.90;2.60;;;;;;;;;;4934288;29;20204;-64
2023/11/04 13:55:48;;;;;;;3.38;2.42;;;;;;;;;;4936836;29;20630;-63
2023/11/04 13:58:18;;;;;;;2.63;2.42;;;;;;;;;;4936810;29;20572;-64
2023/11/04 14:00:46;;;;;;;3.72;2.40;;;;;;;;;;4945857;29;20203;-64
2023/11/04 14:03:14;;;;;;;5.10;2.17;;;;;;;;;;4949251;28;20716;-65
2023/11/04 14:05:42;;;;;;;3.35;2.20;;;;;;;;;;4940836;29;20197;-63
2023/11/04 14:08:10;;;;;;;2.10;1.92;;;;;;;;;;4937858;29;20251;-63
2023/11/04 14:10:38;;;;;;;7.30;2.10;;;;;;;;;;4937877;29;20276;-63
2023/11/04 14:13:07;;;;;;;1.38;1.20;;;;;;;;;;4938355;29;20212;-66
2023/11/04 14:15:36;;;;;;;1.70;1.60;;;;;;;;;;4937600;29;20210;-64
2023/11/04 14:18:05;;;;;;;2.33;2.13;;;;;;;;;;4942098;28;20275;-63
2023/11/04 14:20:34;;;;;;;1.50;1.40;;;;;;;;;;4960257;29;20291;-63
2023/11/04 14:23:04;;;;;;;2.65;1.40;;;;;;;;;;4960830;28;20287;-63
2023/11/04 14:25:32;;;;;;;2.65;1.63;;;;;;;;;;4959627;28;20231;-64
2023/11/04 14:28:00;;;;;;;4.63;1.60;;;;;;;;;;4941077;29;20231;-63
2023/11/04 14:30:28;;;;;;;1.85;1.23;;;;;;;;;;4951655;29;20276;-66
2023/11/04 14:32:58;;;;;;;1.63;1.52;;;;;;;;;;4953185;29;20208;-66
2023/11/04 14:35:26;;;;;;;1.33;1.20;;;;;;;;;;4942180;29;20212;-63
2023/11/04 14:37:54;;;;;;;5.15;3.20;;;;;;;;;;4939909;29;20208;-63
2023/11/04 14:40:22;;;;;;;2.83;2.33;;;;;;;;;;4941649;29;20662;-63
2023/11/04 14:42:50;;;;;;;3.33;3.05;;;;;;;;;;4937811;29;20204;-63
2023/11/04 14:45:19;;;;;;;3.22;2.90;;;;;;;;;;4940048;29;20273;-65
2023/11/04 14:47:47;;;;;;;3.83;3.10;;;;;;;;;;4940431;29;20207;-64
2023/11/04 14:50:17;;;;;;;1.33;1.25;;;;;;;;;;4941337;29;20212;-64
2023/11/04 14:52:45;;;;;;;3.00;2.33;;;;;;;;;;4939724;29;20646;-64
2023/11/04 14:55:13;;;;;;;2.15;1.95;;;;;;;;;;4939764;29;20569;-64
2023/11/04 14:57:44;;;;;;;3.80;2.70;;;;;;;;;;4939481;29;20209;-63
2023/11/04 15:00:13;;;;;;;2.08;1.70;;;;;;;;;;4941164;29;20296;-63
2023/11/04 15:02:42;;;;;;;2.78;2.30;;;;;;;;;;4938417;29;20259;-63
2023/11/04 15:05:10;;;;;;;3.92;3.60;;;;;;;;;;4937017;29;20205;-64
2023/11/04 15:07:39;;;;;;;7.38;4.97;;;;;;;;;;4940539;29;20618;-64
2023/11/04 15:10:08;;;;;;;6.90;5.00;;;;;;;;;;4941304;29;20661;-64
2023/11/04 15:12:36;;;;;;;3.83;3.53;;;;;;;;;;4940745;29;20279;-66
2023/11/04 15:15:05;;;;;;;6.05;3.38;;;;;;;;;;4941198;29;20292;-63
2023/11/04 15:17:33;;;;;;;3.42;3.08;;;;;;;;;;4939942;29;20287;-64
2023/11/04 15:20:01;;;;;;;3.25;2.63;;;;;;;;;;4939824;29;20257;-64
2023/11/04 15:22:29;;;;;;;4.38;3.70;;;;;;;;;;4940173;29;20209;-64
2023/11/04 15:24:59;;;;;;;2.90;2.70;;;;;;;;;;4938731;29;20704;-64
2023/11/04 15:27:27;;;;;;;3.42;3.13;;;;;;;;;;4936244;29;20197;-63
2023/11/04 15:29:56;;;;;;;4.82;3.75;;;;;;;;;;4939106;29;20638;-63
2023/11/04 15:32:24;;;;;;;6.00;4.78;;;;;;;;;;4939925;29;20208;-63
2023/11/04 15:34:52;;;;;;;5.28;4.20;;;;;;;;;;4939955;29;20204;-63
2023/11/04 15:37:22;;;;;;;7.60;4.15;;;;;;;;;;4939667;29;20295;-63